地図

経路データ

SID SEASON NUMBER BASIN SUBBASIN NAME ISO_TIME NATURE LAT LON WMO_WIND WMO_PRES WMO_AGENCY TRACK_TYPE DIST2LAND LANDFALL IFLAG USA_AGENCY USA_ATCF_ID USA_LAT USA_LON USA_RECORD USA_STATUS USA_WIND USA_PRES USA_SSHS USA_R34_NE USA_R34_SE USA_R34_SW USA_R34_NW USA_R50_NE USA_R50_SE USA_R50_SW USA_R50_NW USA_R64_NE USA_R64_SE USA_R64_SW USA_R64_NW USA_POCI USA_ROCI USA_RMW USA_EYE TOKYO_LAT TOKYO_LON TOKYO_GRADE TOKYO_WIND TOKYO_PRES TOKYO_R50_DIR TOKYO_R50_LONG TOKYO_R50_SHORT TOKYO_R30_DIR TOKYO_R30_LONG TOKYO_R30_SHORT TOKYO_LAND CMA_LAT CMA_LON CMA_CAT CMA_WIND CMA_PRES HKO_LAT HKO_LON HKO_CAT HKO_WIND HKO_PRES NEWDELHI_LAT NEWDELHI_LON NEWDELHI_GRADE NEWDELHI_WIND NEWDELHI_PRES NEWDELHI_CI NEWDELHI_DP NEWDELHI_POCI REUNION_LAT REUNION_LON REUNION_TYPE REUNION_WIND REUNION_PRES REUNION_TNUM REUNION_CI REUNION_RMW REUNION_R34_NE REUNION_R34_SE REUNION_R34_SW REUNION_R34_NW REUNION_R50_NE REUNION_R50_SE REUNION_R50_SW REUNION_R50_NW REUNION_R64_NE REUNION_R64_SE REUNION_R64_SW REUNION_R64_NW BOM_LAT BOM_LON BOM_TYPE BOM_WIND BOM_PRES BOM_TNUM BOM_CI BOM_RMW BOM_R34_NE BOM_R34_SE BOM_R34_SW BOM_R34_NW BOM_R50_NE BOM_R50_SE BOM_R50_SW BOM_R50_NW BOM_R64_NE BOM_R64_SE BOM_R64_SW BOM_R64_NW BOM_ROCI BOM_POCI BOM_EYE BOM_POS_METHOD BOM_PRES_METHOD NADI_LAT NADI_LON NADI_CAT NADI_WIND NADI_PRES WELLINGTON_LAT WELLINGTON_LON WELLINGTON_WIND WELLINGTON_PRES DS824_LAT DS824_LON DS824_STAGE DS824_WIND DS824_PRES TD9636_LAT TD9636_LON TD9636_STAGE TD9636_WIND TD9636_PRES TD9635_LAT TD9635_LON TD9635_WIND TD9635_PRES TD9635_ROCI NEUMANN_LAT NEUMANN_LON NEUMANN_CLASS NEUMANN_WIND NEUMANN_PRES MLC_LAT MLC_LON MLC_CLASS MLC_WIND MLC_PRES USA_GUST BOM_GUST BOM_GUST_PER REUNION_GUST REUNION_GUST_PER USA_SEAHGT USA_SEARAD_NE USA_SEARAD_SE USA_SEARAD_SW USA_SEARAD_NW STORM_SPEED STORM_DIR
2022009S18174 2022 3 SP MM CODY 2022-01-08 18:00:00 TS -18.3000 174.200 PROVISIONAL 318 266 O_____________ tcgp SH052022 -18.3000 174.200 TD 30 1000 -1 1005 200 40 9 84
2022009S18174 2022 3 SP MM CODY 2022-01-08 21:00:00 TS -18.2526 174.690 PROVISIONAL 266 224 P_____________ SH052022 -18.2471 174.425 TD 29 1000 -1 1005 200 40 8 90
2022009S18174 2022 3 SP MM CODY 2022-01-09 00:00:00 TS -18.3000 175.075 PROVISIONAL 224 188 O_____________ tcvitals SP052022 -18.3000 174.700 TD 29 1000 -1 1005 200 40 8 109
2022009S18174 2022 3 SP MM CODY 2022-01-09 03:00:00 TS -18.5242 175.508 PROVISIONAL 188 167 P_____________ SP052022 -18.5239 175.052 TD -5 1004 190 42 9 124
2022009S18174 2022 3 SP MM CODY 2022-01-09 06:00:00 TS -18.8091 175.865 PROVISIONAL 163 161 O_____________ tcvitals SP052022 -18.8212 175.419 TD -5 1003 180 45 8 132
2022009S18174 2022 3 SP MM CODY 2022-01-09 09:00:00 TS -19.0866 176.163 PROVISIONAL 161 161 P_____________ SP052022 -19.0732 175.745 TD -5 1003 180 35 8 137
2022009S18174 2022 3 SP MM CODY 2022-01-09 12:00:00 TS -19.3562 176.406 PROVISIONAL 173 168 O_____________ tcvitals SP052022 -19.3123 176.013 TD -5 70 70 20 20 1004 180 25 6 147
2022009S18174 2022 3 SP MM CODY 2022-01-09 15:00:00 TS -19.6100 176.520 PROVISIONAL 187 187 P_____________ SP052022 -19.5400 176.230 TD -5 70 70 20 20 1004 180 20 5 166
2022009S18174 2022 3 SP MM CODY 2022-01-09 18:00:00 TS -19.8236 176.525 PROVISIONAL 207 207 O_____________ tcvitals SP052022 -19.7471 176.351 TD -5 70 70 20 20 1004 180 15 4 184
2022009S18174 2022 3 SP MM CODY 2022-01-09 21:00:00 TS -19.9759 176.513 PROVISIONAL 228 228 P_____________ SP052022 -19.9368 176.389 TD -5 72 72 27 27 1004 180 17 3 201
2022009S18174 2022 3 SP MM CODY 2022-01-10 00:00:00 TS -20.1000 176.414 PROVISIONAL 242 242 O_____________ tcvitals SP052022 -20.1000 176.300 TD 39 997 0 75 75 35 35 1004 180 20 4 229
2022009S18174 2022 3 SP MM CODY 2022-01-10 03:00:00 TS -20.2455 176.175 PROVISIONAL 261 261 P_____________ SP052022 -20.2368 176.070 TD 41 994 0 87 127 92 57 1003 190 20 6 240
2022009S18174 2022 3 SP MM CODY 2022-01-10 06:00:00 TS -20.3914 175.878 PROVISIONAL 296 296 I_____________ tcvitals SP052022 -20.3569 175.789 TD 44 991 0 100 180 150 80 65 105 80 60 1002 200 20 6 240
2022009S18174 2022 3 SP MM CODY 2022-01-10 09:00:00 TS -20.5224 175.657 PROVISIONAL 316 316 P_____________ SP052022 -20.4976 175.609 TD 47 988 0 145 182 150 87 65 105 80 60 1002 200 20 5 245
2022009S18174 2022 3 SP MM CODY 2022-01-10 12:00:00 TS -20.6000 175.400 PROVISIONAL 343 343 O_____________ tcgp SH052022 -20.6000 175.400 TS 50 985 0 190 185 150 95 65 105 80 60 1002 200 20 5 261
2022009S18174 2022 3 SP MM CODY 2022-01-10 15:00:00 TS -20.6074 175.087 PROVISIONAL 362 362 P_____________ SH052022 -20.6106 175.096 TS 45 988 0 150 145 120 90 1002 200 32 7 270
2022009S18174 2022 3 SP MM CODY 2022-01-10 18:00:00 TS -20.6000 174.700 PROVISIONAL 390 390 O_____________ tcgp SH052022 -20.6000 174.700 TS 40 991 0 110 105 90 85 1002 200 45 9 268
2022009S18174 2022 3 SP MM CODY 2022-01-10 21:00:00 TS -20.6353 174.178 PROVISIONAL 428 428 P_____________ SH052022 -20.6353 174.178 TS 42 990 0 102 127 110 72 1002 205 40 9 264
2022009S18174 2022 3 SP MM CODY 2022-01-11 00:00:00 TS -20.7000 173.700 PROVISIONAL 475 475 O_____________ tcgp SH052022 -20.7000 173.700 TS 45 990 0 95 150 130 60 1002 210 35 7 258
2022009S18174 2022 3 SP MM CODY 2022-01-11 03:00:00 TS -20.7848 173.418 PROVISIONAL 506 506 P_____________ SH052022 -20.7848 173.418 TS 45 989 0 92 132 100 65 1002 215 37 4 242
2022009S18174 2022 3 SP MM CODY 2022-01-11 06:00:00 TS -20.9000 173.300 PROVISIONAL 521 521 O_____________ tcgp SH052022 -20.9000 173.300 TS 45 989 0 90 115 70 70 1003 220 40 3 205
2022009S18174 2022 3 SP MM CODY 2022-01-11 09:00:00 TS -21.0199 173.298 PROVISIONAL 528 527 P_____________ SH052022 -21.0199 173.298 TS 45 989 0 77 115 87 62 1004 235 40 3 163
2022009S18174 2022 3 SP MM CODY 2022-01-11 12:00:00 TS -21.2000 173.400 PROVISIONAL 535 535 O_____________ tcgp SH052022 -21.2000 173.400 TS 45 990 0 65 115 105 55 1006 250 40 55 5 152
2022009S18174 2022 3 SP MM CODY 2022-01-11 15:00:00 TS -21.4475 173.542 PROVISIONAL 542 542 P_____________ SH052022 -21.4475 173.542 TS 47 989 0 72 107 97 47 1004 280 35 7 155
2022009S18174 2022 3 SP MM CODY 2022-01-11 18:00:00 TS -21.8000 173.700 PROVISIONAL 559 559 O_____________ tcgp SH052022 -21.8000 173.700 TS 50 989 0 80 100 90 40 50 30 1003 310 30 9 163
2022009S18174 2022 3 SP MM CODY 2022-01-11 21:00:00 TS -22.3000 173.815 PROVISIONAL 594 594 P_____________ SH052022 -22.3000 173.815 TS 50 989 0 82 105 95 50 52 32 1003 305 25 10 169
2022009S18174 2022 3 SP MM CODY 2022-01-12 00:00:00 TS -22.8000 173.900 PROVISIONAL 633 633 O_____________ tcgp SH052022 -22.8000 173.900 TS 50 989 0 85 110 100 60 20 55 35 20 1003 300 20 8 173
2022009S18174 2022 3 SP MM CODY 2022-01-12 03:00:00 TS -23.1149 173.928 PROVISIONAL 661 661 P_____________ SH052022 -23.1149 173.928 TS 50 988 0 95 107 92 60 1003 297 20 6 172
2022009S18174 2022 3 SP MM CODY 2022-01-12 06:00:00 TS -23.4000 174.000 PROVISIONAL 684 684 O_____________ tcgp SH052022 -23.4000 174.000 TS 50 988 0 105 105 85 60 1003 295 20 7 159
2022009S18174 2022 3 SP MM CODY 2022-01-12 09:00:00 TS -23.7925 174.212 PROVISIONAL 713 713 P_____________ SH052022 -23.7925 174.212 TS 50 988 0 102 122 130 65 1004 305 40 9 150
2022009S18174 2022 3 SP MM CODY 2022-01-12 12:00:00 TS -24.2000 174.500 PROVISIONAL 741 741 O_____________ tcgp SH052022 -24.2000 174.500 TS 50 989 0 100 140 175 70 50 75 95 30 1006 315 60 9 146
2022009S18174 2022 3 SP MM CODY 2022-01-12 15:00:00 TS -24.5574 174.785 PROVISIONAL 771 768 P_____________ SH052022 -24.5574 174.785 TS 50 987 0 100 132 132 77 50 70 67 35 1004 305 65 9 142
2022009S18174 2022 3 SP MM CODY 2022-01-12 18:00:00 TS -24.9000 175.100 PROVISIONAL 792 792 O_____________ tcgp SH052022 -24.9000 175.100 TS 50 985 0 100 125 90 85 50 65 40 40 1002 295 70 9 140
2022009S18174 2022 3 SP MM CODY 2022-01-12 21:00:00 TS -25.2650 175.443 PROVISIONAL 824 820 P_____________ SH052022 -25.2650 175.443 TS 47 985 0 125 130 107 102 1002 295 70 9 138
2022009S18174 2022 3 SP MM CODY 2022-01-13 00:00:00 TS -25.6000 175.800 PROVISIONAL 844 841 O_____________ tcgp SH052022 -25.6000 175.800 TS 45 986 0 150 135 125 120 1002 295 70 9 132
2022009S18174 2022 3 SP MM CODY 2022-01-13 03:00:00 TS -25.8651 176.180 PROVISIONAL 867 865 P_____________ SH052022 -25.8651 176.180 TS 47 985 0 162 180 152 122 1002 295 70 8 128
2022009S18174 2022 3 SP MM CODY 2022-01-13 06:00:00 TS -26.1000 176.500 PROVISIONAL 883 883 O_____________ tcgp SH052022 -26.1000 176.500 TS 50 984 0 175 225 180 125 170 115 70 1003 295 70 7 138
2022009S18174 2022 3 SP MM CODY 2022-01-13 09:00:00 TS -26.3573 176.680 PROVISIONAL 913 913 P_____________ SH052022 -26.3573 176.680 TS 50 983 0 175 225 180 125 170 115 70 1003 295 67 6 152
2022009S18174 2022 3 SP MM CODY 2022-01-13 12:00:00 SS -26.6000 176.800 PROVISIONAL 934 934 O_____________ tcgp SH052022 -26.6000 176.800 SS 50 982 -2 175 225 180 125 170 115 70 1004 295 65 5 152
2022009S18174 2022 3 SP MM CODY 2022-01-13 15:00:00 SS -26.8000 176.943 PROVISIONAL 936 923 P_____________ SH052022 -26.8000 176.943 SS 50 982 -2 155 210 177 140 142 115 70 1004 295 65 5 146
2022009S18174 2022 3 SP MM CODY 2022-01-13 18:00:00 SS -27.0000 177.100 PROVISIONAL 923 907 O_____________ tcgp SH052022 -27.0000 177.100 SS 50 982 -2 135 195 175 155 30 115 115 70 1004 295 65 5 147
2022009S18174 2022 3 SP MM CODY 2022-01-13 21:00:00 SS -27.2574 177.278 PROVISIONAL 901 885 P_____________ SH052022 -27.2574 177.278 SS 50 981 -2 125 220 192 145 30 115 115 85 1004 295 72 6 144
2022009S18174 2022 3 SP MM CODY 2022-01-14 00:00:00 SS -27.5000 177.500 PROVISIONAL 890 884 O_____________ tcgp SH052022 -27.5000 177.500 SS 50 981 -2 115 245 210 135 30 115 115 100 1004 295 80 6 132
2022009S18174 2022 3 SP MM CODY 2022-01-14 03:00:00 SS -27.6726 177.793 PROVISIONAL 884 884 P_____________ SH052022 -27.6726 177.793 SS 50 980 -2 117 257 215 142 32 110 112 100 1004 302 80 6 120
2022009S18174 2022 3 SP MM CODY 2022-01-14 06:00:00 SS -27.8000 178.100 PROVISIONAL 890 886 O_____________ tcgp SH052022 -27.8000 178.100 SS 50 980 -2 120 270 220 150 35 105 110 100 1004 310 80 5 116
2022009S18174 2022 3 SP MM CODY 2022-01-14 09:00:00 SS -27.9074 178.350 PROVISIONAL 896 893 P_____________ SH052022 -27.9074 178.350 SS 47 984 -2 142 270 220 150 1004 310 80 5 114
2022009S18174 2022 3 SP MM CODY 2022-01-14 12:00:00 SS -28.0000 178.600 PROVISIONAL 898 898 O_____________ tcgp SH052022 -28.0000 178.600 SS 45 989 -2 165 270 220 150 1005 310 80 5 111
2022009S18174 2022 3 SP MM CODY 2022-01-14 15:00:00 SS -28.0924 178.885 PROVISIONAL 906 906 P_____________ SH052022 -28.0924 178.885 SS 45 989 -2 157 265 235 140 1005 310 80 6 111
2022009S18174 2022 3 SP MM CODY 2022-01-14 18:00:00 SS -28.2000 179.200 PROVISIONAL 912 912 O_____________ tcgp SH052022 -28.2000 179.200 SS 45 989 -2 150 260 250 130 1005 310 80 6 111
2022009S18174 2022 3 SP MM CODY 2022-01-14 21:00:00 SS -28.3124 179.535 PROVISIONAL 918 915 P_____________ SH052022 -28.3124 179.535 SS 40 991 -2 170 1005 310 85 7 116
2022009S18174 2022 3 SP MM CODY 2022-01-15 00:00:00 SS -28.5000 179.900 PROVISIONAL 922 912 O_____________ tcgp SH052022 -28.5000 179.900 SS 35 993 -2 90 1005 310 90 9 128
2022009S18174 2022 3 SP MM CODY 2022-01-15 03:00:00 SS -28.8350 180.300 PROVISIONAL 918 906 P_____________ SH052022 -28.8350 -179.700 SS 32 993 -2 1005 310 85 10 135
2022009S18174 2022 3 SP MM CODY 2022-01-15 06:00:00 SS -29.2000 180.700 PROVISIONAL 907 902 O_____________ tcgp SH052022 -29.2000 -179.300 SD 30 993 -2 1005 310 80 8 132
2022009S18174 2022 3 SP MM CODY 2022-01-15 09:00:00 SS -29.4044 181.014 PROVISIONAL 909 904 P_____________ SH052022 -29.4044 -178.986 SD 30 990 -2 1005 310 80 8 129
2022009S18174 2022 3 SP MM CODY 2022-01-15 12:00:00 SS -29.7000 181.400 PROVISIONAL 911 888 O_____________ tcgp SH052022 -29.7000 -178.600 SD 30 988 -2 1005 310 80 12 136
2022009S18174 2022 3 SP MM CODY 2022-01-15 15:00:00 SS -30.2662 181.984 PROVISIONAL 881 835 P_____________ SH052022 -30.2662 -178.016 SD 30 988 -2 1005 310 80 17 139
2022009S18174 2022 3 SP MM CODY 2022-01-15 18:00:00 SS -31.0000 182.700 PROVISIONAL 835 O_____________ tcgp SH052022 -31.0000 -177.300 SD 30 989 -2 1005 310 80 19 140

デジタル台風データ・検索

IBTrACS Databaseについて

本データベースは、米国NOAAが公開する1842年以降の世界の熱帯低気圧のベストトラックデータアーカイブInternational Best Track Archive for Climate Stewardship (IBTrACS)を、ウェブで閲覧しやすい形式に変換したものです。

最終更新日:2022-08-10